This is the latest recevied weather packets stored in our database for station/object KG7BDA. If no packets are shown the sender has not sent any weather packets the latest 10 day(s).
| Time | Temp. | Humidity | Pressure | Rain* | Wind** | Luminosity | Snow |
|---|---|---|---|---|---|---|---|
| 1778147484 | 12.22° C | 70% | 1015.9 hPa | 0 mm | - | - | - |
| 1778147125 | 12.22° C | 69% | 1015.8 hPa | 0 mm | - | - | - |
| 1778146765 | 12.78° C | 66% | 1015.8 hPa | 0 mm | - | - | - |
| 1778146404 | 13.33° C | 65% | 1015.8 hPa | 0 mm | - | - | - |
| 1778146044 | 13.89° C | 65% | 1015.7 hPa | 0 mm | - | - | - |
| 1778145684 | 13.33° C | 65% | 1015.7 hPa | 0 mm | - | - | - |
| 1778145323 | 13.89° C | 64% | 1015.9 hPa | 0 mm | - | - | - |
| 1778144965 | 13.33° C | 65% | 1015.9 hPa | 0 mm | - | - | - |
| 1778144604 | 13.33° C | 66% | 1015.9 hPa | 0 mm | - | - | - |
| 1778144244 | 13.33° C | 65% | 1015.8 hPa | 0 mm | - | - | - |
| 1778143883 | 13.89° C | 63% | 1015.7 hPa | 0 mm | - | - | - |
| 1778143524 | 14.44° C | 61% | 1015.5 hPa | 0 mm | - | - | - |
| 1778143164 | 15° C | 60% | 1015.6 hPa | 0 mm | - | - | - |
| 1778142804 | 15° C | 59% | 1015.6 hPa | 0 mm | - | - | - |
| 1778142443 | 15.56° C | 58% | 1015.7 hPa | 0 mm | - | - | - |
| 1778142084 | 15.56° C | 59% | 1015.7 hPa | 0 mm | - | - | - |
| 1778141724 | 14.44° C | 61% | 1015.6 hPa | 0 mm | - | - | - |
| 1778141364 | 14.44° C | 61% | 1015.6 hPa | 0 mm | - | - | - |
| 1778141004 | 14.44° C | 61% | 1015.7 hPa | 0 mm | - | - | - |
| 1778140644 | 15° C | 59% | 1015.6 hPa | 0 mm | - | - | - |
| 1778140284 | 15° C | 58% | 1015.5 hPa | 0 mm | - | - | - |
| 1778139924 | 15° C | 58% | 1015.4 hPa | 0 mm | - | - | - |
| 1778139565 | 15.56° C | 58% | 1015.5 hPa | 0 mm | - | - | - |
| 1778139204 | 15.56° C | 58% | 1015.6 hPa | 0 mm | - | - | - |
| 1778138876 | 15° C | 58% | 1015.5 hPa | 0 mm | - | - | - |
* Rain latest hour (hover to see other rain measurements)
** Current wind speed in m/s (hover to see current wind gust speed)